sensor_id;sensor_type;location;lat;lon;timestamp;P1;durP1;ratioP1;P2;durP2;ratioP2
11829;SDS011;5972;42.134;24.718;2023-04-19T09:09:36;2.53;;;1.50;;
11829;SDS011;5972;42.134;24.718;2023-04-19T09:12:14;1.50;;;1.40;;
11829;SDS011;5972;42.134;24.718;2023-04-19T09:14:42;1.90;;;1.70;;
11829;SDS011;5972;42.134;24.718;2023-04-19T09:17:10;1.75;;;1.65;;
11829;SDS011;5972;42.134;24.718;2023-04-19T09:19:44;1.60;;;1.50;;
11829;SDS011;5972;42.134;24.718;2023-04-19T09:22:11;3.78;;;1.40;;
11829;SDS011;5972;42.134;24.718;2023-04-19T09:27:30;2.17;;;1.42;;
11829;SDS011;5972;42.134;24.718;2023-04-19T09:29:57;3.95;;;1.50;;
11829;SDS011;5972;42.134;24.718;2023-04-19T09:32:24;2.17;;;1.52;;
11829;SDS011;5972;42.134;24.718;2023-04-19T09:34:51;3.10;;;1.60;;
11829;SDS011;5972;42.134;24.718;2023-04-19T09:37:18;1.48;;;1.38;;
11829;SDS011;5972;42.134;24.718;2023-04-19T09:39:44;1.60;;;1.50;;
11829;SDS011;5972;42.134;24.718;2023-04-19T09:42:11;4.10;;;1.63;;
11829;SDS011;5972;42.134;24.718;2023-04-19T09:44:39;3.08;;;1.50;;
11829;SDS011;5972;42.134;24.718;2023-04-19T09:47:20;3.13;;;1.50;;
11829;SDS011;5972;42.134;24.718;2023-04-19T09:49:47;4.05;;;1.50;;
11829;SDS011;5972;42.134;24.718;2023-04-19T09:52:13;3.97;;;1.50;;
11829;SDS011;5972;42.134;24.718;2023-04-19T09:54:40;1.50;;;1.40;;
11829;SDS011;5972;42.134;24.718;2023-04-19T09:57:07;1.60;;;1.50;;
11829;SDS011;5972;42.134;24.718;2023-04-19T09:59:33;6.13;;;1.80;;
11829;SDS011;5972;42.134;24.718;2023-04-19T10:02:01;2.00;;;1.52;;
11829;SDS011;5972;42.134;24.718;2023-04-19T10:04:30;1.40;;;1.23;;
11829;SDS011;5972;42.134;24.718;2023-04-19T10:06:56;1.48;;;1.38;;
11829;SDS011;5972;42.134;24.718;2023-04-19T10:09:23;3.92;;;1.48;;
11829;SDS011;5972;42.134;24.718;2023-04-19T10:11:51;1.52;;;1.42;;
11829;SDS011;5972;42.134;24.718;2023-04-19T10:14:20;2.80;;;1.52;;
11829;SDS011;5972;42.134;24.718;2023-04-19T10:16:48;1.50;;;1.40;;
11829;SDS011;5972;42.134;24.718;2023-04-19T10:19:17;4.20;;;1.85;;
11829;SDS011;5972;42.134;24.718;2023-04-19T10:21:44;3.38;;;1.50;;
11829;SDS011;5972;42.134;24.718;2023-04-19T10:24:12;1.52;;;1.27;;
11829;SDS011;5972;42.134;24.718;2023-04-19T10:32:05;1.50;;;1.40;;
11829;SDS011;5972;42.134;24.718;2023-04-19T10:34:39;1.40;;;1.30;;
11829;SDS011;5972;42.134;24.718;2023-04-19T10:37:09;1.40;;;1.30;;
11829;SDS011;5972;42.134;24.718;2023-04-19T10:39:38;1.17;;;1.17;;
11829;SDS011;5972;42.134;24.718;2023-04-19T10:42:06;1.40;;;1.30;;
11829;SDS011;5972;42.134;24.718;2023-04-19T10:44:33;1.45;;;1.35;;
11829;SDS011;5972;42.134;24.718;2023-04-19T10:46:59;2.55;;;1.50;;
11829;SDS011;5972;42.134;24.718;2023-04-19T10:49:26;1.88;;;1.40;;
11829;SDS011;5972;42.134;24.718;2023-04-19T10:51:54;1.98;;;1.27;;
11829;SDS011;5972;42.134;24.718;2023-04-19T10:54:28;2.08;;;1.30;;
11829;SDS011;5972;42.134;24.718;2023-04-19T10:56:56;3.60;;;1.27;;
11829;SDS011;5972;42.134;24.718;2023-04-19T10:59:23;1.75;;;1.30;;
11829;SDS011;5972;42.134;24.718;2023-04-19T11:01:51;1.42;;;1.33;;
11829;SDS011;5972;42.134;24.718;2023-04-19T11:04:18;1.75;;;1.42;;
11829;SDS011;5972;42.134;24.718;2023-04-19T11:07:02;1.45;;;1.30;;
11829;SDS011;5972;42.134;24.718;2023-04-19T11:09:30;2.10;;;1.13;;
11829;SDS011;5972;42.134;24.718;2023-04-19T11:11:59;2.83;;;1.02;;
11829;SDS011;5972;42.134;24.718;2023-04-19T11:14:27;1.88;;;1.10;;
11829;SDS011;5972;42.134;24.718;2023-04-19T11:16:54;1.45;;;1.20;;
11829;SDS011;5972;42.134;24.718;2023-04-19T11:19:21;1.30;;;1.30;;
11829;SDS011;5972;42.134;24.718;2023-04-19T11:21:48;1.50;;;1.30;;
11829;SDS011;5972;42.134;24.718;2023-04-19T11:24:16;1.10;;;1.10;;
11829;SDS011;5972;42.134;24.718;2023-04-19T11:26:44;0.90;;;0.90;;
11829;SDS011;5972;42.134;24.718;2023-04-19T11:29:11;3.30;;;0.95;;
11829;SDS011;5972;42.134;24.718;2023-04-19T11:31:37;1.00;;;1.00;;
11829;SDS011;5972;42.134;24.718;2023-04-19T11:34:04;4.10;;;1.48;;
11829;SDS011;5972;42.134;24.718;2023-04-19T11:36:30;1.25;;;1.10;;
11829;SDS011;5972;42.134;24.718;2023-04-19T11:38:58;1.75;;;1.30;;
11829;SDS011;5972;42.134;24.718;2023-04-19T11:41:25;1.00;;;1.00;;
11829;SDS011;5972;42.134;24.718;2023-04-19T11:43:52;1.88;;;1.10;;
11829;SDS011;5972;42.134;24.718;2023-04-19T11:46:18;1.40;;;1.30;;
11829;SDS011;5972;42.134;24.718;2023-04-19T11:48:51;1.40;;;1.20;;
11829;SDS011;5972;42.134;24.718;2023-04-19T11:51:18;2.67;;;1.30;;
11829;SDS011;5972;42.134;24.718;2023-04-19T11:53:44;3.88;;;1.10;;
11829;SDS011;5972;42.134;24.718;2023-04-19T11:56:11;1.90;;;1.33;;
11829;SDS011;5972;42.134;24.718;2023-04-19T11:58:41;1.50;;;1.30;;
11829;SDS011;5972;42.134;24.718;2023-04-19T12:01:10;1.48;;;1.10;;
11829;SDS011;5972;42.134;24.718;2023-04-19T12:03:39;1.80;;;1.15;;
11829;SDS011;5972;42.134;24.718;2023-04-19T12:06:05;1.40;;;1.30;;
11829;SDS011;5972;42.134;24.718;2023-04-19T12:08:42;1.38;;;1.27;;
11829;SDS011;5972;42.134;24.718;2023-04-19T12:11:09;1.40;;;1.30;;
11829;SDS011;5972;42.134;24.718;2023-04-19T12:13:35;1.75;;;1.40;;
11829;SDS011;5972;42.134;24.718;2023-04-19T12:16:04;1.58;;;1.48;;
11829;SDS011;5972;42.134;24.718;2023-04-19T12:18:43;2.58;;;1.60;;
11829;SDS011;5972;42.134;24.718;2023-04-19T12:21:10;3.90;;;1.55;;
11829;SDS011;5972;42.134;24.718;2023-04-19T12:23:37;2.88;;;0.95;;
11829;SDS011;5972;42.134;24.718;2023-04-19T12:26:03;1.48;;;1.10;;
11829;SDS011;5972;42.134;24.718;2023-04-19T12:28:30;1.58;;;1.40;;
11829;SDS011;5972;42.134;24.718;2023-04-19T12:30:57;3.17;;;1.40;;
11829;SDS011;5972;42.134;24.718;2023-04-19T12:33:25;2.40;;;1.50;;
11829;SDS011;5972;42.134;24.718;2023-04-19T12:35:51;3.92;;;1.33;;
11829;SDS011;5972;42.134;24.718;2023-04-19T12:38:18;5.38;;;1.73;;
11829;SDS011;5972;42.134;24.718;2023-04-19T12:40:44;1.92;;;1.38;;
11829;SDS011;5972;42.134;24.718;2023-04-19T12:43:11;1.60;;;1.42;;
11829;SDS011;5972;42.134;24.718;2023-04-19T12:45:38;3.85;;;1.48;;
11829;SDS011;5972;42.134;24.718;2023-04-19T12:48:04;1.48;;;1.38;;
11829;SDS011;5972;42.134;24.718;2023-04-19T12:50:33;3.00;;;1.52;;
11829;SDS011;5972;42.134;24.718;2023-04-19T12:53:06;3.15;;;1.48;;
11829;SDS011;5972;42.134;24.718;2023-04-19T12:55:33;2.72;;;1.50;;
11829;SDS011;5972;42.134;24.718;2023-04-19T12:58:00;4.05;;;1.60;;
11829;SDS011;5972;42.134;24.718;2023-04-19T13:00:26;3.17;;;1.65;;
11829;SDS011;5972;42.134;24.718;2023-04-19T13:02:55;2.70;;;1.63;;
11829;SDS011;5972;42.134;24.718;2023-04-19T13:05:21;2.58;;;1.35;;
11829;SDS011;5972;42.134;24.718;2023-04-19T13:07:54;1.75;;;1.65;;
11829;SDS011;5972;42.134;24.718;2023-04-19T13:10:33;3.03;;;1.48;;
11829;SDS011;5972;42.134;24.718;2023-04-19T13:13:04;1.60;;;1.40;;
11829;SDS011;5972;42.134;24.718;2023-04-19T13:15:30;1.98;;;1.60;;
11829;SDS011;5972;42.134;24.718;2023-04-19T13:17:58;1.98;;;1.67;;
11829;SDS011;5972;42.134;24.718;2023-04-19T13:20:25;6.93;;;2.03;;
11829;SDS011;5972;42.134;24.718;2023-04-19T13:22:53;2.42;;;1.80;;
11829;SDS011;5972;42.134;24.718;2023-04-19T13:25:19;2.03;;;1.70;;
11829;SDS011;5972;42.134;24.718;2023-04-19T13:27:46;2.10;;;1.92;;
11829;SDS011;5972;42.134;24.718;2023-04-19T13:30:13;4.15;;;2.08;;
11829;SDS011;5972;42.134;24.718;2023-04-19T13:32:39;2.63;;;1.50;;
11829;SDS011;5972;42.134;24.718;2023-04-19T13:35:06;1.20;;;1.20;;
11829;SDS011;5972;42.134;24.718;2023-04-19T13:37:33;1.40;;;1.30;;
11829;SDS011;5972;42.134;24.718;2023-04-19T13:40:00;1.30;;;1.20;;
11829;SDS011;5972;42.134;24.718;2023-04-19T13:42:28;2.05;;;1.30;;
11829;SDS011;5972;42.134;24.718;2023-04-19T13:44:54;3.80;;;1.80;;
11829;SDS011;5972;42.134;24.718;2023-04-19T13:47:23;3.00;;;1.73;;
11829;SDS011;5972;42.134;24.718;2023-04-19T13:49:49;3.63;;;1.73;;
11829;SDS011;5972;42.134;24.718;2023-04-19T13:52:16;1.88;;;1.67;;
11829;SDS011;5972;42.134;24.718;2023-04-19T13:54:43;2.97;;;1.55;;
11829;SDS011;5972;42.134;24.718;2023-04-19T13:57:11;1.77;;;1.60;;
11829;SDS011;5972;42.134;24.718;2023-04-19T13:59:40;1.67;;;1.50;;
11829;SDS011;5972;42.134;24.718;2023-04-19T14:02:07;1.55;;;1.45;;
11829;SDS011;5972;42.134;24.718;2023-04-19T14:04:33;2.08;;;1.70;;
11829;SDS011;5972;42.134;24.718;2023-04-19T14:07:00;3.50;;;1.90;;
11829;SDS011;5972;42.134;24.718;2023-04-19T14:09:26;3.45;;;2.13;;
11829;SDS011;5972;42.134;24.718;2023-04-19T14:11:53;3.42;;;1.90;;
11829;SDS011;5972;42.134;24.718;2023-04-19T14:14:21;1.70;;;1.60;;
11829;SDS011;5972;42.134;24.718;2023-04-19T14:16:47;3.13;;;1.80;;
11829;SDS011;5972;42.134;24.718;2023-04-19T14:19:16;1.75;;;1.48;;
11829;SDS011;5972;42.134;24.718;2023-04-19T14:21:42;4.40;;;1.85;;
11829;SDS011;5972;42.134;24.718;2023-04-19T14:24:09;3.10;;;1.63;;
11829;SDS011;5972;42.134;24.718;2023-04-19T14:26:35;5.70;;;2.67;;
11829;SDS011;5972;42.134;24.718;2023-04-19T14:29:04;3.33;;;2.42;;
11829;SDS011;5972;42.134;24.718;2023-04-19T14:31:32;3.40;;;2.13;;
11829;SDS011;5972;42.134;24.718;2023-04-19T14:33:58;8.43;;;2.78;;
11829;SDS011;5972;42.134;24.718;2023-04-19T14:36:25;6.03;;;2.90;;
11829;SDS011;5972;42.134;24.718;2023-04-19T14:38:52;6.63;;;2.70;;
11829;SDS011;5972;42.134;24.718;2023-04-19T14:41:18;5.25;;;2.40;;
11829;SDS011;5972;42.134;24.718;2023-04-19T14:43:48;7.07;;;2.45;;
11829;SDS011;5972;42.134;24.718;2023-04-19T14:46:16;2.28;;;2.00;;
11829;SDS011;5972;42.134;24.718;2023-04-19T14:48:45;4.93;;;3.22;;
11829;SDS011;5972;42.134;24.718;2023-04-19T14:51:12;7.38;;;1.80;;
11829;SDS011;5972;42.134;24.718;2023-04-19T14:53:39;3.83;;;2.13;;
11829;SDS011;5972;42.134;24.718;2023-04-19T14:56:06;2.55;;;2.00;;
11829;SDS011;5972;42.134;24.718;2023-04-19T14:58:32;4.30;;;2.00;;
11829;SDS011;5972;42.134;24.718;2023-04-19T15:01:09;4.28;;;2.25;;
11829;SDS011;5972;42.134;24.718;2023-04-19T15:03:37;3.63;;;2.00;;
11829;SDS011;5972;42.134;24.718;2023-04-19T15:06:05;3.92;;;2.28;;
11829;SDS011;5972;42.134;24.718;2023-04-19T15:08:33;7.65;;;2.47;;
11829;SDS011;5972;42.134;24.718;2023-04-19T15:11:05;4.70;;;1.80;;
11829;SDS011;5972;42.134;24.718;2023-04-19T15:13:32;3.28;;;2.17;;
11829;SDS011;5972;42.134;24.718;2023-04-19T15:15:59;4.32;;;2.53;;
11829;SDS011;5972;42.134;24.718;2023-04-19T15:18:37;4.78;;;2.13;;
11829;SDS011;5972;42.134;24.718;2023-04-19T15:21:07;9.18;;;2.50;;
11829;SDS011;5972;42.134;24.718;2023-04-19T15:23:34;6.80;;;2.50;;
11829;SDS011;5972;42.134;24.718;2023-04-19T15:26:02;5.28;;;2.20;;
11829;SDS011;5972;42.134;24.718;2023-04-19T15:28:29;4.90;;;2.50;;
11829;SDS011;5972;42.134;24.718;2023-04-19T15:30:59;9.38;;;2.78;;
11829;SDS011;5972;42.134;24.718;2023-04-19T15:33:26;5.93;;;2.70;;
11829;SDS011;5972;42.134;24.718;2023-04-19T15:35:57;4.43;;;3.03;;
11829;SDS011;5972;42.134;24.718;2023-04-19T15:38:26;9.25;;;3.00;;
11829;SDS011;5972;42.134;24.718;2023-04-19T15:40:53;5.43;;;2.70;;
11829;SDS011;5972;42.134;24.718;2023-04-19T15:43:19;5.07;;;2.60;;
11829;SDS011;5972;42.134;24.718;2023-04-19T15:45:48;4.50;;;2.67;;
11829;SDS011;5972;42.134;24.718;2023-04-19T15:48:15;10.45;;;3.10;;
11829;SDS011;5972;42.134;24.718;2023-04-19T15:50:44;3.95;;;2.28;;
11829;SDS011;5972;42.134;24.718;2023-04-19T15:53:11;4.13;;;2.47;;
11829;SDS011;5972;42.134;24.718;2023-04-19T15:55:41;5.13;;;2.95;;
11829;SDS011;5972;42.134;24.718;2023-04-19T15:58:08;9.82;;;3.47;;
11829;SDS011;5972;42.134;24.718;2023-04-19T16:00:34;5.55;;;2.88;;
11829;SDS011;5972;42.134;24.718;2023-04-19T16:03:01;2.92;;;2.55;;
11829;SDS011;5972;42.134;24.718;2023-04-19T16:05:29;3.00;;;2.45;;
11829;SDS011;5972;42.134;24.718;2023-04-19T16:08:00;5.65;;;2.55;;
11829;SDS011;5972;42.134;24.718;2023-04-19T16:10:27;6.35;;;2.75;;
11829;SDS011;5972;42.134;24.718;2023-04-19T16:12:55;6.35;;;2.90;;
11829;SDS011;5972;42.134;24.718;2023-04-19T16:15:26;4.40;;;3.20;;
11829;SDS011;5972;42.134;24.718;2023-04-19T16:17:57;5.45;;;3.03;;
11829;SDS011;5972;42.134;24.718;2023-04-19T16:20:23;6.72;;;2.90;;
11829;SDS011;5972;42.134;24.718;2023-04-19T16:22:54;6.47;;;3.08;;
11829;SDS011;5972;42.134;24.718;2023-04-19T16:25:21;7.18;;;3.35;;
11829;SDS011;5972;42.134;24.718;2023-04-19T16:27:49;5.72;;;3.33;;
11829;SDS011;5972;42.134;24.718;2023-04-19T16:30:17;4.10;;;3.15;;
11829;SDS011;5972;42.134;24.718;2023-04-19T16:32:45;8.05;;;3.70;;
11829;SDS011;5972;42.134;24.718;2023-04-19T16:35:16;5.50;;;3.88;;
11829;SDS011;5972;42.134;24.718;2023-04-19T16:37:43;6.65;;;3.97;;
11829;SDS011;5972;42.134;24.718;2023-04-19T16:40:09;9.18;;;5.15;;
11829;SDS011;5972;42.134;24.718;2023-04-19T16:42:36;25.77;;;13.30;;
11829;SDS011;5972;42.134;24.718;2023-04-19T16:45:06;11.82;;;5.25;;
11829;SDS011;5972;42.134;24.718;2023-04-19T16:47:34;7.97;;;4.15;;
11829;SDS011;5972;42.134;24.718;2023-04-19T16:50:01;8.02;;;3.58;;
11829;SDS011;5972;42.134;24.718;2023-04-19T16:52:30;3.20;;;2.88;;
11829;SDS011;5972;42.134;24.718;2023-04-19T16:54:56;8.85;;;3.22;;
11829;SDS011;5972;42.134;24.718;2023-04-19T16:57:24;10.88;;;4.22;;
11829;SDS011;5972;42.134;24.718;2023-04-19T16:59:50;7.47;;;3.60;;
11829;SDS011;5972;42.134;24.718;2023-04-19T17:02:17;7.22;;;3.83;;
11829;SDS011;5972;42.134;24.718;2023-04-19T17:04:47;7.32;;;3.30;;
11829;SDS011;5972;42.134;24.718;2023-04-19T17:07:13;5.13;;;3.20;;
11829;SDS011;5972;42.134;24.718;2023-04-19T17:09:40;6.72;;;3.83;;
11829;SDS011;5972;42.134;24.718;2023-04-19T17:12:06;10.57;;;4.63;;
11829;SDS011;5972;42.134;24.718;2023-04-19T17:14:33;5.97;;;4.45;;
11829;SDS011;5972;42.134;24.718;2023-04-19T17:17:00;12.05;;;3.92;;
11829;SDS011;5972;42.134;24.718;2023-04-19T17:19:27;7.00;;;4.30;;
11829;SDS011;5972;42.134;24.718;2023-04-19T17:21:55;5.85;;;3.92;;
11829;SDS011;5972;42.134;24.718;2023-04-19T17:24:31;5.47;;;3.13;;
11829;SDS011;5972;42.134;24.718;2023-04-19T17:26:58;6.50;;;3.70;;
11829;SDS011;5972;42.134;24.718;2023-04-19T17:29:24;4.50;;;4.03;;
11829;SDS011;5972;42.134;24.718;2023-04-19T17:31:51;6.18;;;3.40;;
11829;SDS011;5972;42.134;24.718;2023-04-19T17:34:17;7.28;;;3.70;;
11829;SDS011;5972;42.134;24.718;2023-04-19T17:36:47;4.03;;;2.50;;
11829;SDS011;5972;42.134;24.718;2023-04-19T17:39:15;6.07;;;3.47;;
11829;SDS011;5972;42.134;24.718;2023-04-19T17:41:42;7.35;;;3.70;;
11829;SDS011;5972;42.134;24.718;2023-04-19T17:44:09;5.88;;;3.45;;
11829;SDS011;5972;42.134;24.718;2023-04-19T17:46:35;4.22;;;3.63;;
11829;SDS011;5972;42.134;24.718;2023-04-19T17:49:02;8.43;;;3.85;;
11829;SDS011;5972;42.134;24.718;2023-04-19T17:51:29;4.15;;;3.60;;
11829;SDS011;5972;42.134;24.718;2023-04-19T17:53:55;4.03;;;3.58;;
11829;SDS011;5972;42.134;24.718;2023-04-19T17:56:23;6.57;;;3.75;;
11829;SDS011;5972;42.134;24.718;2023-04-19T17:58:50;10.30;;;5.63;;
11829;SDS011;5972;42.134;24.718;2023-04-19T18:01:16;4.63;;;3.50;;
11829;SDS011;5972;42.134;24.718;2023-04-19T18:03:42;3.55;;;3.05;;
11829;SDS011;5972;42.134;24.718;2023-04-19T18:06:09;5.80;;;3.13;;
11829;SDS011;5972;42.134;24.718;2023-04-19T18:08:36;4.50;;;3.17;;
11829;SDS011;5972;42.134;24.718;2023-04-19T18:11:02;3.95;;;3.10;;
11829;SDS011;5972;42.134;24.718;2023-04-19T18:13:33;3.10;;;2.80;;
11829;SDS011;5972;42.134;24.718;2023-04-19T18:15:59;4.50;;;2.95;;
11829;SDS011;5972;42.134;24.718;2023-04-19T18:18:27;5.13;;;3.00;;
11829;SDS011;5972;42.134;24.718;2023-04-19T18:20:53;3.35;;;2.88;;
11829;SDS011;5972;42.134;24.718;2023-04-19T18:23:20;5.43;;;3.83;;
11829;SDS011;5972;42.134;24.718;2023-04-19T18:25:51;3.90;;;3.50;;
11829;SDS011;5972;42.134;24.718;2023-04-19T18:28:17;4.43;;;4.03;;
11829;SDS011;5972;42.134;24.718;2023-04-19T18:30:45;7.35;;;4.07;;
11829;SDS011;5972;42.134;24.718;2023-04-19T18:33:12;6.57;;;4.20;;
11829;SDS011;5972;42.134;24.718;2023-04-19T18:35:38;4.50;;;4.10;;
11829;SDS011;5972;42.134;24.718;2023-04-19T18:38:06;4.90;;;4.18;;
11829;SDS011;5972;42.134;24.718;2023-04-19T18:40:32;4.75;;;4.35;;
11829;SDS011;5972;42.134;24.718;2023-04-19T18:42:59;7.45;;;4.28;;
11829;SDS011;5972;42.134;24.718;2023-04-19T18:45:25;6.47;;;4.13;;
11829;SDS011;5972;42.134;24.718;2023-04-19T18:47:54;6.30;;;4.68;;
11829;SDS011;5972;42.134;24.718;2023-04-19T18:50:20;7.50;;;4.60;;
11829;SDS011;5972;42.134;24.718;2023-04-19T18:52:47;6.80;;;4.40;;
11829;SDS011;5972;42.134;24.718;2023-04-19T18:55:13;7.97;;;4.68;;
11829;SDS011;5972;42.134;24.718;2023-04-19T18:57:40;5.28;;;4.78;;
11829;SDS011;5972;42.134;24.718;2023-04-19T19:00:07;10.50;;;5.68;;
11829;SDS011;5972;42.134;24.718;2023-04-19T19:02:35;8.10;;;5.60;;
11829;SDS011;5972;42.134;24.718;2023-04-19T19:05:03;8.63;;;5.20;;
11829;SDS011;5972;42.134;24.718;2023-04-19T19:07:30;6.82;;;4.63;;
11829;SDS011;5972;42.134;24.718;2023-04-19T19:09:56;8.85;;;4.78;;
11829;SDS011;5972;42.134;24.718;2023-04-19T19:12:29;5.25;;;3.90;;
11829;SDS011;5972;42.134;24.718;2023-04-19T19:15:01;4.82;;;4.32;;
11829;SDS011;5972;42.134;24.718;2023-04-19T19:17:28;4.57;;;4.15;;
11829;SDS011;5972;42.134;24.718;2023-04-19T19:19:54;6.82;;;4.32;;
11829;SDS011;5972;42.134;24.718;2023-04-19T19:22:22;5.35;;;4.32;;
11829;SDS011;5972;42.134;24.718;2023-04-19T19:24:48;10.05;;;4.82;;
11829;SDS011;5972;42.134;24.718;2023-04-19T19:27:15;8.50;;;5.47;;
11829;SDS011;5972;42.134;24.718;2023-04-19T19:29:44;5.47;;;4.47;;
11829;SDS011;5972;42.134;24.718;2023-04-19T19:32:11;6.85;;;4.75;;
11829;SDS011;5972;42.134;24.718;2023-04-19T19:34:38;7.47;;;5.13;;
11829;SDS011;5972;42.134;24.718;2023-04-19T19:37:04;4.60;;;4.18;;
11829;SDS011;5972;42.134;24.718;2023-04-19T19:39:32;4.45;;;4.07;;
11829;SDS011;5972;42.134;24.718;2023-04-19T19:41:59;6.28;;;3.70;;
11829;SDS011;5972;42.134;24.718;2023-04-19T19:44:25;4.30;;;3.90;;
11829;SDS011;5972;42.134;24.718;2023-04-19T19:46:52;3.70;;;3.40;;
11829;SDS011;5972;42.134;24.718;2023-04-19T19:49:18;4.03;;;3.63;;
11829;SDS011;5972;42.134;24.718;2023-04-19T19:51:45;4.90;;;4.40;;
11829;SDS011;5972;42.134;24.718;2023-04-19T19:54:11;9.43;;;6.50;;
11829;SDS011;5972;42.134;24.718;2023-04-19T19:56:39;7.05;;;6.20;;
11829;SDS011;5972;42.134;24.718;2023-04-19T19:59:05;5.25;;;4.00;;
11829;SDS011;5972;42.134;24.718;2023-04-19T20:01:32;6.18;;;4.88;;
11829;SDS011;5972;42.134;24.718;2023-04-19T20:03:59;8.07;;;3.25;;
11829;SDS011;5972;42.134;24.718;2023-04-19T20:06:26;4.38;;;3.60;;
11829;SDS011;5972;42.134;24.718;2023-04-19T20:08:52;4.45;;;3.80;;
11829;SDS011;5972;42.134;24.718;2023-04-19T20:11:21;4.65;;;3.35;;
11829;SDS011;5972;42.134;24.718;2023-04-19T20:13:49;5.18;;;3.58;;
11829;SDS011;5972;42.134;24.718;2023-04-19T20:16:15;5.25;;;3.95;;
11829;SDS011;5972;42.134;24.718;2023-04-19T20:18:43;6.18;;;3.65;;
11829;SDS011;5972;42.134;24.718;2023-04-19T20:21:13;4.65;;;3.88;;
11829;SDS011;5972;42.134;24.718;2023-04-19T20:23:40;4.13;;;2.83;;
11829;SDS011;5972;42.134;24.718;2023-04-19T20:26:06;4.07;;;3.67;;
11829;SDS011;5972;42.134;24.718;2023-04-19T20:28:33;7.20;;;3.50;;
11829;SDS011;5972;42.134;24.718;2023-04-19T20:31:00;3.90;;;3.42;;
11829;SDS011;5972;42.134;24.718;2023-04-19T20:33:27;4.13;;;3.78;;
11829;SDS011;5972;42.134;24.718;2023-04-19T20:35:53;4.35;;;3.45;;
11829;SDS011;5972;42.134;24.718;2023-04-19T20:38:20;4.45;;;3.60;;
11829;SDS011;5972;42.134;24.718;2023-04-19T20:40:48;3.83;;;3.45;;
11829;SDS011;5972;42.134;24.718;2023-04-19T20:43:15;3.63;;;3.33;;
11829;SDS011;5972;42.134;24.718;2023-04-19T20:45:41;3.78;;;3.20;;
11829;SDS011;5972;42.134;24.718;2023-04-19T20:48:09;4.10;;;3.50;;
11829;SDS011;5972;42.134;24.718;2023-04-19T20:50:37;4.93;;;4.07;;
11829;SDS011;5972;42.134;24.718;2023-04-19T20:53:03;5.50;;;4.60;;
11829;SDS011;5972;42.134;24.718;2023-04-19T20:55:29;7.47;;;4.90;;
11829;SDS011;5972;42.134;24.718;2023-04-19T20:57:56;6.07;;;4.55;;
11829;SDS011;5972;42.134;24.718;2023-04-19T21:00:22;5.15;;;4.65;;
11829;SDS011;5972;42.134;24.718;2023-04-19T21:02:49;4.90;;;4.40;;
11829;SDS011;5972;42.134;24.718;2023-04-19T21:05:17;5.07;;;4.50;;
11829;SDS011;5972;42.134;24.718;2023-04-19T21:07:43;6.10;;;4.35;;
11829;SDS011;5972;42.134;24.718;2023-04-19T21:10:10;6.15;;;4.50;;
11829;SDS011;5972;42.134;24.718;2023-04-19T21:12:37;4.78;;;4.38;;
11829;SDS011;5972;42.134;24.718;2023-04-19T21:15:04;6.20;;;4.82;;
11829;SDS011;5972;42.134;24.718;2023-04-19T21:17:31;6.25;;;5.18;;
11829;SDS011;5972;42.134;24.718;2023-04-19T21:19:57;4.82;;;4.35;;
11829;SDS011;5972;42.134;24.718;2023-04-19T21:22:25;5.75;;;4.80;;
11829;SDS011;5972;42.134;24.718;2023-04-19T21:24:51;12.23;;;7.68;;
11829;SDS011;5972;42.134;24.718;2023-04-19T21:27:18;11.52;;;8.07;;
11829;SDS011;5972;42.134;24.718;2023-04-19T21:29:44;6.78;;;5.45;;
11829;SDS011;5972;42.134;24.718;2023-04-19T21:32:11;10.25;;;6.35;;
11829;SDS011;5972;42.134;24.718;2023-04-19T21:34:37;5.40;;;4.82;;
11829;SDS011;5972;42.134;24.718;2023-04-19T21:37:04;9.15;;;5.22;;
11829;SDS011;5972;42.134;24.718;2023-04-19T21:39:33;7.32;;;5.85;;
11829;SDS011;5972;42.134;24.718;2023-04-19T21:41:59;7.28;;;5.75;;
11829;SDS011;5972;42.134;24.718;2023-04-19T21:44:25;6.53;;;5.53;;
11829;SDS011;5972;42.134;24.718;2023-04-19T21:46:52;6.90;;;5.82;;
11829;SDS011;5972;42.134;24.718;2023-04-19T21:49:19;6.35;;;5.75;;
11829;SDS011;5972;42.134;24.718;2023-04-19T21:51:46;7.28;;;6.30;;
11829;SDS011;5972;42.134;24.718;2023-04-19T21:54:12;8.55;;;6.30;;
11829;SDS011;5972;42.134;24.718;2023-04-19T21:56:40;8.55;;;5.90;;
11829;SDS011;5972;42.134;24.718;2023-04-19T21:59:08;10.00;;;6.72;;
11829;SDS011;5972;42.134;24.718;2023-04-19T22:01:35;9.85;;;6.40;;
11829;SDS011;5972;42.134;24.718;2023-04-19T22:04:01;7.95;;;7.15;;
11829;SDS011;5972;42.134;24.718;2023-04-19T22:06:28;10.55;;;7.35;;
11829;SDS011;5972;42.134;24.718;2023-04-19T22:08:55;8.90;;;6.90;;
11829;SDS011;5972;42.134;24.718;2023-04-19T22:11:23;7.70;;;6.65;;
11829;SDS011;5972;42.134;24.718;2023-04-19T22:13:51;7.88;;;6.80;;
11829;SDS011;5972;42.134;24.718;2023-04-19T22:16:18;7.50;;;6.72;;
11829;SDS011;5972;42.134;24.718;2023-04-19T22:18:44;8.27;;;7.35;;
11829;SDS011;5972;42.134;24.718;2023-04-19T22:21:12;8.68;;;7.53;;
11829;SDS011;5972;42.134;24.718;2023-04-19T22:23:38;11.38;;;7.93;;
11829;SDS011;5972;42.134;24.718;2023-04-19T22:26:05;10.35;;;7.97;;
11829;SDS011;5972;42.134;24.718;2023-04-19T22:28:32;9.00;;;8.07;;
11829;SDS011;5972;42.134;24.718;2023-04-19T22:31:01;9.07;;;8.13;;
11829;SDS011;5972;42.134;24.718;2023-04-19T22:33:27;9.57;;;8.57;;
11829;SDS011;5972;42.134;24.718;2023-04-19T22:35:54;10.00;;;8.70;;
11829;SDS011;5972;42.134;24.718;2023-04-19T22:38:20;10.55;;;9.20;;
11829;SDS011;5972;42.134;24.718;2023-04-19T22:40:47;10.20;;;9.10;;
11829;SDS011;5972;42.134;24.718;2023-04-19T22:43:13;9.82;;;8.82;;
11829;SDS011;5972;42.134;24.718;2023-04-19T22:45:40;9.80;;;8.73;;
11829;SDS011;5972;42.134;24.718;2023-04-19T22:48:09;10.27;;;9.15;;
11829;SDS011;5972;42.134;24.718;2023-04-19T22:50:36;9.75;;;8.82;;
11829;SDS011;5972;42.134;24.718;2023-04-19T22:53:02;10.68;;;8.73;;
11829;SDS011;5972;42.134;24.718;2023-04-19T22:55:29;9.32;;;8.18;;
11829;SDS011;5972;42.134;24.718;2023-04-19T22:57:55;9.23;;;8.32;;
11829;SDS011;5972;42.134;24.718;2023-04-19T23:00:22;10.27;;;9.27;;
11829;SDS011;5972;42.134;24.718;2023-04-19T23:02:49;10.15;;;8.30;;
11829;SDS011;5972;42.134;24.718;2023-04-19T23:05:17;8.75;;;7.85;;
11829;SDS011;5972;42.134;24.718;2023-04-19T23:07:44;11.25;;;8.00;;
11829;SDS011;5972;42.134;24.718;2023-04-19T23:10:10;10.90;;;8.40;;
11829;SDS011;5972;42.134;24.718;2023-04-19T23:12:37;8.98;;;8.07;;
11829;SDS011;5972;42.134;24.718;2023-04-19T23:15:04;9.20;;;8.27;;
11829;SDS011;5972;42.134;24.718;2023-04-19T23:17:31;11.23;;;8.45;;
11829;SDS011;5972;42.134;24.718;2023-04-19T23:19:58;10.70;;;7.93;;
11829;SDS011;5972;42.134;24.718;2023-04-19T23:22:26;8.95;;;8.13;;
11829;SDS011;5972;42.134;24.718;2023-04-19T23:24:53;8.52;;;7.40;;
11829;SDS011;5972;42.134;24.718;2023-04-19T23:27:20;8.48;;;7.68;;
11829;SDS011;5972;42.134;24.718;2023-04-19T23:29:46;8.75;;;7.47;;
11829;SDS011;5972;42.134;24.718;2023-04-19T23:32:13;8.40;;;7.60;;
11829;SDS011;5972;42.134;24.718;2023-04-19T23:34:39;8.75;;;7.88;;
11829;SDS011;5972;42.134;24.718;2023-04-19T23:37:06;9.02;;;8.13;;
11829;SDS011;5972;42.134;24.718;2023-04-19T23:39:34;9.32;;;8.43;;
11829;SDS011;5972;42.134;24.718;2023-04-19T23:42:00;14.50;;;8.70;;
11829;SDS011;5972;42.134;24.718;2023-04-19T23:44:27;11.38;;;8.90;;
11829;SDS011;5972;42.134;24.718;2023-04-19T23:46:54;9.68;;;8.63;;
11829;SDS011;5972;42.134;24.718;2023-04-19T23:49:20;9.93;;;8.88;;
11829;SDS011;5972;42.134;24.718;2023-04-19T23:51:47;10.60;;;8.80;;
11829;SDS011;5972;42.134;24.718;2023-04-19T23:54:14;9.90;;;8.90;;
11829;SDS011;5972;42.134;24.718;2023-04-19T23:56:46;9.57;;;8.43;;
11829;SDS011;5972;42.134;24.718;2023-04-19T23:59:13;10.82;;;9.48;;
